Terminal Aerodrome Forecast
Issued by NWS Omaha/Valley, NE

Home | Current Version | Previous Version | Graphics & Text | Print | Product List | Glossary On
Versions: 1 2 3 4 5 6 7 8 9 10 11 12 13 14 15 16 17 18 19 20 21
000
FTUS43 KOAX 232337
TAFOFK
TAF
KOFK 232337Z 2400/2424 15012KT P6SM BKN250
     FM240300 15014KT P6SM BKN200 WS020/17040KT
     FM241500 18015G25KT P6SM BKN150 PROB30 2420/2424 4SM -TSRA
      OVC040CB=

USA.gov is the U.S. government's official web portal to all federal, state and local government web resources and services.